createdAt,value
2018-10-01T00:00:35.945Z,0
2018-10-01T00:01:45.883Z,0
2018-10-01T00:02:55.736Z,0
2018-10-01T00:04:05.894Z,0
2018-10-01T00:05:16.027Z,0
2018-10-01T00:06:26.137Z,0
2018-10-01T00:07:36.359Z,0
2018-10-01T00:08:46.256Z,0
2018-10-01T00:09:56.409Z,0
2018-10-01T00:11:06.607Z,0
2018-10-01T00:12:16.735Z,0
2018-10-01T00:13:26.849Z,0
2018-10-01T00:14:37.037Z,0
2018-10-01T00:15:47.196Z,0
2018-10-01T00:16:57.334Z,0
2018-10-01T00:18:07.476Z,0
2018-10-01T00:19:17.869Z,0
2018-10-01T00:20:28.021Z,0
2018-10-01T00:21:37.996Z,0
2018-10-01T00:22:48.396Z,0
2018-10-01T00:23:58.517Z,0
2018-10-01T00:25:08.702Z,0
2018-10-01T00:26:18.985Z,0
2018-10-01T00:27:29.346Z,0
2018-10-01T00:28:39.104Z,0
2018-10-01T00:29:49.235Z,0
2018-10-01T00:30:59.383Z,0
2018-10-01T00:32:09.520Z,0
2018-10-01T00:33:19.647Z,0
2018-10-01T00:34:29.763Z,0
2018-10-01T00:35:39.891Z,0
2018-10-01T00:36:49.959Z,0
2018-10-01T00:38:00.157Z,0
2018-10-01T00:39:11.372Z,0
2018-10-01T00:40:21.620Z,0
2018-10-01T00:41:31.778Z,0
2018-10-01T00:42:42.233Z,0
2018-10-01T00:43:52.371Z,0
2018-10-01T00:45:02.235Z,0
2018-10-01T00:46:12.385Z,0
2018-10-01T00:47:22.270Z,0
2018-10-01T00:48:32.643Z,0
2018-10-01T00:49:42.804Z,0
2018-10-01T00:50:53.038Z,0
2018-10-01T00:52:03.894Z,0
2018-10-01T00:53:14.047Z,0
2018-10-01T00:54:24.227Z,0
2018-10-01T00:55:34.443Z,0
2018-10-01T00:56:44.673Z,0
2018-10-01T00:57:54.928Z,0
2018-10-01T00:59:04.695Z,0
2018-10-01T01:00:14.843Z,0
2018-10-01T01:01:25.004Z,0
2018-10-01T01:02:35.264Z,0
2018-10-01T01:03:45.491Z,0
2018-10-01T01:04:55.346Z,0
2018-10-01T01:06:05.499Z,0
2018-10-01T01:07:15.697Z,0
2018-10-01T01:08:25.850Z,0
2018-10-01T01:09:36.154Z,0
2018-10-01T01:10:47.400Z,0
2018-10-01T01:11:57.628Z,0
2018-10-01T01:13:07.852Z,0
2018-10-01T01:14:18.129Z,0
2018-10-01T01:15:28.031Z,0
2018-10-01T01:16:38.170Z,0
2018-10-01T01:17:48.311Z,0
2018-10-01T01:18:58.477Z,0
2018-10-01T01:20:08.664Z,0
2018-10-01T01:21:18.890Z,0
2018-10-01T01:22:29.090Z,0
2018-10-01T01:23:39.438Z,0
2018-10-01T01:24:49.618Z,0
2018-10-01T01:26:00.452Z,0
2018-10-01T01:27:10.478Z,0
2018-10-01T01:28:21.163Z,0
2018-10-01T01:29:31.343Z,0
2018-10-01T01:30:41.449Z,0
2018-10-01T01:31:51.561Z,0
2018-10-01T01:33:01.765Z,0
2018-10-01T01:34:11.872Z,0
2018-10-01T01:35:22.083Z,0
2018-10-01T01:36:32.311Z,0
2018-10-01T01:37:42.449Z,0
2018-10-01T01:38:52.698Z,0
2018-10-01T01:40:02.837Z,0
2018-10-01T01:41:12.976Z,0
2018-10-01T01:42:22.904Z,0
2018-10-01T01:43:33.377Z,0
2018-10-01T01:44:43.561Z,0
2018-10-01T01:45:53.709Z,0
2018-10-01T01:47:03.622Z,0
2018-10-01T01:48:13.871Z,0
2018-10-01T01:49:24.016Z,0
2018-10-01T01:50:34.158Z,0
2018-10-01T01:51:44.055Z,0
2018-10-01T01:52:54.180Z,0
2018-10-01T01:54:03.828Z,0
2018-10-01T01:55:14.165Z,0
2018-10-01T01:56:24.153Z,0
2018-10-01T01:57:34.017Z,0
2018-10-01T01:58:44.173Z,0
2018-10-01T01:59:54.621Z,0
2018-10-01T02:01:04.877Z,0
2018-10-01T02:02:15.204Z,0
2018-10-01T02:03:25.429Z,0
2018-10-01T02:04:35.278Z,0
2018-10-01T02:05:46.385Z,0
2018-10-01T02:06:56.541Z,0
2018-10-01T02:08:06.737Z,0
2018-10-01T02:09:16.647Z,0
2018-10-01T02:10:26.824Z,0
2018-10-01T02:11:36.961Z,0
2018-10-01T02:12:47.207Z,0
2018-10-01T02:13:57.396Z,0
2018-10-01T02:15:07.606Z,0
2018-10-01T02:16:17.507Z,0
2018-10-01T02:17:27.633Z,0
2018-10-01T02:18:37.789Z,0
2018-10-01T02:19:47.960Z,0
2018-10-01T02:20:58.071Z,0
2018-10-01T02:22:08.426Z,0
2018-10-01T02:23:18.535Z,0
2018-10-01T02:24:28.520Z,0
2018-10-01T02:25:38.675Z,0
2018-10-01T02:26:48.756Z,0
2018-10-01T02:27:58.895Z,0
2018-10-01T02:29:09.030Z,0
2018-10-01T02:30:18.902Z,0
2018-10-01T02:31:29.054Z,0
2018-10-01T02:32:39.183Z,0
2018-10-01T02:33:49.313Z,0
2018-10-01T02:34:59.482Z,0
2018-10-01T02:36:09.355Z,0
2018-10-01T02:37:19.704Z,0
2018-10-01T02:38:29.592Z,0
2018-10-01T02:39:39.465Z,0
2018-10-01T02:40:49.590Z,0
2018-10-01T02:41:59.773Z,0
2018-10-01T02:43:10.049Z,0
2018-10-01T02:44:20.380Z,0
2018-10-01T02:45:30.534Z,0
2018-10-01T02:46:40.412Z,0
2018-10-01T02:47:50.951Z,0
2018-10-01T02:49:01.286Z,0
2018-10-01T02:50:12.388Z,0
2018-10-01T02:51:22.545Z,0
2018-10-01T02:52:32.741Z,0
2018-10-01T02:53:42.942Z,0
2018-10-01T02:54:53.217Z,0
2018-10-01T02:56:03.359Z,0
2018-10-01T02:57:13.274Z,0
2018-10-01T02:58:23.151Z,0
2018-10-01T02:59:33.264Z,0
2018-10-01T03:00:43.404Z,0
2018-10-01T03:01:53.580Z,0
2018-10-01T03:03:03.805Z,0
2018-10-01T03:04:14.025Z,0
2018-10-01T03:05:23.883Z,0
2018-10-01T03:06:34.040Z,0
2018-10-01T03:07:44.259Z,0
2018-10-01T03:08:54.127Z,0
2018-10-01T03:10:04.267Z,0
2018-10-01T03:11:14.466Z,0
2018-10-01T03:12:25.308Z,0
2018-10-01T03:13:35.611Z,0
2018-10-01T03:14:45.773Z,0
2018-10-01T03:15:55.932Z,0
2018-10-01T03:17:06.082Z,0
2018-10-01T03:18:15.938Z,0
2018-10-01T03:19:26.261Z,0
2018-10-01T03:20:36.418Z,0
2018-10-01T03:21:46.608Z,0
2018-10-01T03:22:56.744Z,0
2018-10-01T03:24:06.859Z,0
2018-10-01T03:25:17.055Z,0
2018-10-01T03:26:27.803Z,0
2018-10-01T03:27:38.188Z,0
2018-10-01T03:28:47.713Z,0
2018-10-01T03:29:57.963Z,0
2018-10-01T03:31:07.847Z,0
2018-10-01T03:32:18.020Z,0
2018-10-01T03:33:28.186Z,0
2018-10-01T03:34:38.311Z,0
2018-10-01T03:35:48.711Z,0
2018-10-01T03:36:58.839Z,0
2018-10-01T03:38:09.029Z,0
2018-10-01T03:39:18.887Z,0
2018-10-01T03:40:29.011Z,0
2018-10-01T03:41:39.190Z,0
2018-10-01T03:42:49.401Z,0
2018-10-01T03:43:59.645Z,0
2018-10-01T03:45:09.787Z,0
2018-10-01T03:46:20.159Z,0
2018-10-01T03:47:30.539Z,0
2018-10-01T03:48:40.908Z,0
2018-10-01T03:49:51.023Z,0
2018-10-01T03:51:01.144Z,0
2018-10-01T03:52:11.267Z,0
2018-10-01T03:53:21.449Z,0
2018-10-01T03:54:31.595Z,0
2018-10-01T03:55:41.377Z,0
2018-10-01T03:56:51.546Z,0
2018-10-01T03:58:01.763Z,0
2018-10-01T03:59:11.644Z,0
2018-10-01T04:00:21.793Z,0
2018-10-01T04:01:32.025Z,0
2018-10-01T04:02:41.922Z,0
2018-10-01T04:03:52.037Z,0
2018-10-01T04:05:01.902Z,0
2018-10-01T04:06:12.068Z,0
2018-10-01T04:07:22.211Z,0
2018-10-01T04:08:32.359Z,0
2018-10-01T04:09:42.226Z,0
2018-10-01T04:10:52.341Z,0
2018-10-01T04:12:02.213Z,0
2018-10-01T04:13:12.383Z,0
2018-10-01T04:14:22.535Z,0
2018-10-01T04:15:32.816Z,0
2018-10-01T04:16:42.956Z,0
2018-10-01T04:17:52.575Z,0
2018-10-01T04:19:02.964Z,0
2018-10-01T04:20:13.117Z,0
2018-10-01T04:21:23.302Z,0
2018-10-01T04:22:33.522Z,0
2018-10-01T04:23:43.748Z,0
2018-10-01T04:24:53.960Z,0
2018-10-01T04:26:04.156Z,0
2018-10-01T04:27:14.350Z,0
2018-10-01T04:28:24.478Z,0
2018-10-01T04:29:34.699Z,0
2018-10-01T04:30:44.828Z,0
2018-10-01T04:31:55.082Z,0
2018-10-01T04:33:05.227Z,0
2018-10-01T04:34:15.363Z,0
2018-10-01T04:35:25.533Z,0
2018-10-01T04:36:35.757Z,0
2018-10-01T04:37:45.948Z,0
2018-10-01T04:38:55.888Z,0
2018-10-01T04:40:06.028Z,0
2018-10-01T04:41:16.159Z,4
2018-10-01T04:42:26.344Z,0
2018-10-01T04:43:36.559Z,0
2018-10-01T04:44:46.648Z,4
2018-10-01T04:45:56.767Z,4
2018-10-01T04:47:06.887Z,0
2018-10-01T04:48:16.749Z,4
2018-10-01T04:49:26.876Z,4
2018-10-01T04:50:37.080Z,8
2018-10-01T04:51:47.309Z,4
2018-10-01T04:52:57.154Z,8
2018-10-01T04:54:07.279Z,12
2018-10-01T04:55:17.157Z,12
2018-10-01T04:56:27.295Z,16
2018-10-01T04:57:37.435Z,20
2018-10-01T04:58:47.947Z,24
2018-10-01T04:59:58.164Z,28
2018-10-01T05:01:08.084Z,32
2018-10-01T05:02:18.224Z,40
2018-10-01T05:03:28.356Z,48
2018-10-01T05:04:38.532Z,56
2018-10-01T05:05:48.718Z,68
2018-10-01T05:06:58.827Z,76
2018-10-01T05:08:09.261Z,88
2018-10-01T05:09:19.486Z,100
2018-10-01T05:10:29.602Z,112
2018-10-01T05:11:39.560Z,128
2018-10-01T05:12:49.680Z,144
2018-10-01T05:13:59.862Z,160
2018-10-01T05:15:10.109Z,176
2018-10-01T05:16:19.973Z,196
2018-10-01T05:17:30.146Z,216
2018-10-01T05:18:40.270Z,236
2018-10-01T05:19:50.441Z,252
2018-10-01T05:21:00.651Z,268
2018-10-01T05:22:10.796Z,280
2018-10-01T05:23:20.913Z,292
2018-10-01T05:24:31.022Z,316
2018-10-01T05:25:41.216Z,344
2018-10-01T05:26:52.352Z,380
2018-10-01T05:28:02.547Z,436
2018-10-01T05:29:13.008Z,484
2018-10-01T05:30:23.139Z,532
2018-10-01T05:31:33.338Z,576
2018-10-01T05:32:43.211Z,616
2018-10-01T05:33:53.603Z,652
2018-10-01T05:35:04.068Z,668
2018-10-01T05:36:14.200Z,696
2018-10-01T05:37:24.405Z,716
2018-10-01T05:38:34.823Z,688
2018-10-01T05:39:44.729Z,656
2018-10-01T05:40:54.764Z,688
2018-10-01T05:42:04.885Z,752
2018-10-01T05:43:14.768Z,804
2018-10-01T05:44:24.892Z,844
2018-10-01T05:45:35.033Z,880
2018-10-01T05:46:45.185Z,940
2018-10-01T05:47:55.584Z,976
2018-10-01T05:49:06.218Z,1068
2018-10-01T05:50:16.458Z,1176
2018-10-01T05:51:26.315Z,1276
2018-10-01T05:52:36.427Z,1388
2018-10-01T05:53:46.571Z,1468
2018-10-01T05:54:57.010Z,1472
2018-10-01T05:56:07.432Z,1432
2018-10-01T05:57:17.515Z,1404
2018-10-01T05:58:27.370Z,1396
2018-10-01T05:59:37.584Z,1396
2018-10-01T06:00:48.666Z,1396
2018-10-01T06:01:58.842Z,1404
2018-10-01T06:03:08.981Z,1428
2018-10-01T06:04:19.105Z,1460
2018-10-01T06:05:29.294Z,1496
2018-10-01T06:06:39.548Z,1536
2018-10-01T06:07:49.947Z,1588
2018-10-01T06:09:00.076Z,1660
2018-10-01T06:10:10.462Z,1736
2018-10-01T06:11:20.604Z,1784
2018-10-01T06:12:30.751Z,1820
2018-10-01T06:13:40.886Z,1848
2018-10-01T06:14:51.023Z,1852
2018-10-01T06:16:00.887Z,1828
2018-10-01T06:17:11.032Z,1816
2018-10-01T06:18:21.289Z,1812
2018-10-01T06:19:31.448Z,1848
2018-10-01T06:20:41.668Z,1864
2018-10-01T06:21:51.840Z,1924
2018-10-01T06:23:02.074Z,2060
2018-10-01T06:24:12.271Z,2240
2018-10-01T06:25:22.922Z,2384
2018-10-01T06:26:33.038Z,2480
2018-10-01T06:27:42.957Z,2520
2018-10-01T06:28:53.193Z,2560
2018-10-01T06:30:03.589Z,2724
2018-10-01T06:31:13.485Z,2844
2018-10-01T06:32:23.893Z,2940
2018-10-01T06:33:34.051Z,3056
2018-10-01T06:34:43.050Z,3064
2018-10-01T06:35:52.969Z,3004
2018-10-01T06:37:03.410Z,2960
2018-10-01T06:38:13.712Z,3064
2018-10-01T06:39:23.897Z,3200
2018-10-01T06:40:33.905Z,3396
2018-10-01T06:41:44.984Z,3600
2018-10-01T06:42:55.059Z,3788
2018-10-01T06:44:05.190Z,3864
2018-10-01T06:45:15.398Z,3920
2018-10-01T06:46:25.544Z,4068
2018-10-01T06:47:35.484Z,4240
2018-10-01T06:48:46.355Z,4168
2018-10-01T06:49:56.247Z,3928
2018-10-01T06:51:06.023Z,3684
2018-10-01T06:52:16.224Z,3504
2018-10-01T06:53:26.431Z,3332
2018-10-01T06:54:36.341Z,3176
2018-10-01T06:55:46.449Z,3044
2018-10-01T06:56:56.604Z,2968
2018-10-01T06:58:06.831Z,2920
2018-10-01T06:59:16.450Z,2944
2018-10-01T07:00:26.694Z,2992
2018-10-01T07:01:36.603Z,3052
2018-10-01T07:02:46.949Z,3080
2018-10-01T07:03:57.088Z,3108
2018-10-01T07:05:07.242Z,3236
2018-10-01T07:06:16.885Z,3440
2018-10-01T07:07:27.046Z,3708
2018-10-01T07:08:37.227Z,4016
2018-10-01T07:09:47.588Z,4276
2018-10-01T07:10:57.798Z,4400
2018-10-01T07:12:08.006Z,4276
2018-10-01T07:13:18.329Z,4140
2018-10-01T07:14:28.500Z,3824
2018-10-01T07:15:38.647Z,3516
2018-10-01T07:16:48.983Z,3256
2018-10-01T07:17:59.267Z,3212
2018-10-01T07:19:09.419Z,3160
2018-10-01T07:20:19.576Z,3088
2018-10-01T07:21:29.485Z,3216
2018-10-01T07:22:40.512Z,3440
2018-10-01T07:23:51.040Z,3612
2018-10-01T07:25:01.166Z,3744
2018-10-01T07:26:11.307Z,3652
2018-10-01T07:27:21.447Z,3616
2018-10-01T07:28:31.591Z,3764
2018-10-01T07:29:41.736Z,3696
2018-10-01T07:30:52.246Z,3044
2018-10-01T07:32:02.448Z,2652
2018-10-01T07:33:12.577Z,2796
2018-10-01T07:34:22.791Z,2288
2018-10-01T07:35:33.013Z,1812
2018-10-01T07:36:42.924Z,1492
2018-10-01T07:37:53.064Z,1360
2018-10-01T07:39:03.794Z,1316
2018-10-01T07:40:14.335Z,1320
2018-10-01T07:41:24.585Z,1416
2018-10-01T07:42:34.703Z,1448
2018-10-01T07:43:44.424Z,1420
2018-10-01T07:44:55.133Z,1544
2018-10-01T07:46:05.714Z,2004
2018-10-01T07:47:16.162Z,2400
2018-10-01T07:48:27.288Z,2672
2018-10-01T07:49:37.643Z,2516
2018-10-01T07:50:48.041Z,2832
2018-10-01T07:51:58.283Z,4324
2018-10-01T07:53:08.443Z,4740
2018-10-01T07:54:18.878Z,5564
2018-10-01T07:55:29.040Z,6240
2018-10-01T07:56:39.431Z,5548
2018-10-01T07:57:49.640Z,4824
2018-10-01T07:58:59.792Z,4228
2018-10-01T08:00:10.505Z,3364
2018-10-01T08:01:21.139Z,3108
2018-10-01T08:02:31.100Z,3792
2018-10-01T08:03:41.331Z,4548
2018-10-01T08:04:51.426Z,4504
2018-10-01T08:06:01.584Z,4972
2018-10-01T08:07:12.170Z,5576
2018-10-01T08:08:22.711Z,5592
2018-10-01T08:09:33.249Z,5284
2018-10-01T08:10:43.459Z,5144
2018-10-01T08:11:53.727Z,4584
2018-10-01T08:13:03.981Z,4320
2018-10-01T08:14:14.392Z,4048
2018-10-01T08:15:24.846Z,3776
2018-10-01T08:16:35.059Z,4076
2018-10-01T08:17:45.208Z,4636
2018-10-01T08:18:54.981Z,4828
2018-10-01T08:20:05.313Z,4724
2018-10-01T08:21:15.580Z,4328
2018-10-01T08:22:25.877Z,3664
2018-10-01T08:23:36.207Z,3076
2018-10-01T08:24:46.693Z,2580
2018-10-01T08:25:56.861Z,2240
2018-10-01T08:27:07.106Z,2080
2018-10-01T08:28:17.226Z,2028
2018-10-01T08:29:27.415Z,2104
2018-10-01T08:30:37.945Z,2236
2018-10-01T08:31:49.055Z,2292
2018-10-01T08:32:59.206Z,2292
2018-10-01T08:34:09.334Z,2536
2018-10-01T08:35:19.560Z,3092
2018-10-01T08:36:29.840Z,3652
2018-10-01T08:37:40.209Z,3980
2018-10-01T08:38:50.790Z,4084
2018-10-01T08:40:01.095Z,3976
2018-10-01T08:41:11.438Z,3688
2018-10-01T08:42:22.313Z,3384
2018-10-01T08:43:32.568Z,3424
2018-10-01T08:44:42.937Z,3520
2018-10-01T08:45:52.826Z,3476
2018-10-01T08:47:03.065Z,3408
2018-10-01T08:48:13.523Z,3360
2018-10-01T08:49:23.724Z,3176
2018-10-01T08:50:34.494Z,2936
2018-10-01T08:51:45.030Z,2460
2018-10-01T08:52:54.998Z,2128
2018-10-01T08:54:04.905Z,2672
2018-10-01T08:55:15.035Z,2748
2018-10-01T08:56:25.360Z,2888
2018-10-01T08:57:35.564Z,2288
2018-10-01T08:58:45.372Z,1764
2018-10-01T08:59:55.287Z,1740
2018-10-01T09:01:05.576Z,2692
2018-10-01T09:02:16.258Z,2436
2018-10-01T09:03:26.299Z,2360
2018-10-01T09:04:36.663Z,2772
2018-10-01T09:05:46.293Z,3308
2018-10-01T09:06:56.354Z,3092
2018-10-01T09:08:06.516Z,3036
2018-10-01T09:09:16.846Z,3552
2018-10-01T09:10:26.935Z,4672
2018-10-01T09:11:37.213Z,4336
2018-10-01T09:12:47.437Z,4812
2018-10-01T09:13:57.692Z,4716
2018-10-01T09:15:08.148Z,4732
2018-10-01T09:16:18.404Z,4580
2018-10-01T09:17:28.726Z,4452
2018-10-01T09:18:40.200Z,4504
2018-10-01T09:19:50.580Z,4600
2018-10-01T09:21:00.739Z,4832
2018-10-01T09:22:10.921Z,5124
2018-10-01T09:23:21.340Z,5208
2018-10-01T09:24:31.574Z,5332
2018-10-01T09:25:41.440Z,5840
2018-10-01T09:26:51.605Z,6376
2018-10-01T09:28:01.767Z,6412
2018-10-01T09:29:11.931Z,6140
2018-10-01T09:30:22.438Z,5908
2018-10-01T09:31:32.605Z,5740
2018-10-01T09:32:43.066Z,5568
2018-10-01T09:33:53.313Z,5248
2018-10-01T09:35:03.721Z,5252
2018-10-01T09:36:14.064Z,5052
2018-10-01T09:37:24.208Z,4836
2018-10-01T09:38:34.586Z,4520
2018-10-01T09:39:45.190Z,4536
2018-10-01T09:40:55.515Z,4528
2018-10-01T09:42:05.836Z,4484
2018-10-01T09:43:16.053Z,4344
2018-10-01T09:44:26.081Z,4608
2018-10-01T09:45:36.355Z,4664
2018-10-01T09:46:46.546Z,4644
2018-10-01T09:47:56.902Z,4568
2018-10-01T09:49:07.262Z,4552
2018-10-01T09:50:17.787Z,4380
2018-10-01T09:51:28.049Z,4188
2018-10-01T09:52:38.569Z,4256
2018-10-01T09:53:49.007Z,4236
2018-10-01T09:54:58.933Z,4192
2018-10-01T09:56:09.577Z,4232
2018-10-01T09:57:20.013Z,4224
2018-10-01T09:58:30.386Z,4248
2018-10-01T09:59:40.636Z,4172
2018-10-01T10:00:50.823Z,4152
2018-10-01T10:02:01.085Z,4096
2018-10-01T10:03:11.536Z,4136
2018-10-01T10:04:22.329Z,4248
2018-10-01T10:05:32.722Z,4416
2018-10-01T10:06:42.869Z,4548
2018-10-01T10:07:52.994Z,4720
2018-10-01T10:09:03.206Z,4916
2018-10-01T10:10:13.623Z,4964
2018-10-01T10:11:24.033Z,5100
2018-10-01T10:12:34.431Z,5140
2018-10-01T10:13:45.021Z,5104
2018-10-01T10:14:55.175Z,4956
2018-10-01T10:16:05.696Z,4888
2018-10-01T10:17:16.068Z,4984
2018-10-01T10:18:26.273Z,4996
2018-10-01T10:19:36.438Z,4920
2018-10-01T10:20:46.608Z,4964
2018-10-01T10:21:57.082Z,5296
2018-10-01T10:23:07.333Z,5760
2018-10-01T10:24:17.777Z,5952
2018-10-01T10:25:27.937Z,6060
2018-10-01T10:26:37.959Z,6016
2018-10-01T10:27:47.940Z,5984
2018-10-01T10:28:58.307Z,6060
2018-10-01T10:30:09.424Z,6128
2018-10-01T10:31:19.583Z,6232
2018-10-01T10:32:29.854Z,6100
2018-10-01T10:33:40.171Z,5468
2018-10-01T10:34:50.334Z,6280
2018-10-01T10:36:00.484Z,7196
2018-10-01T10:37:10.253Z,7400
2018-10-01T10:38:20.124Z,7772
2018-10-01T10:39:30.504Z,8148
2018-10-01T10:40:40.843Z,8520
2018-10-01T10:41:51.334Z,9216
2018-10-01T10:43:01.825Z,9632
2018-10-01T10:44:12.353Z,9432
2018-10-01T10:45:22.514Z,8944
2018-10-01T10:46:32.748Z,8704
2018-10-01T10:47:42.606Z,8304
2018-10-01T10:48:52.780Z,7628
2018-10-01T10:50:03.038Z,7048
2018-10-01T10:51:13.249Z,6948
2018-10-01T10:52:23.383Z,7308
2018-10-01T10:53:33.563Z,7512
2018-10-01T10:54:43.726Z,7612
2018-10-01T10:55:53.946Z,7744
2018-10-01T10:57:04.173Z,7672
2018-10-01T10:58:14.651Z,7460
2018-10-01T10:59:25.227Z,7208
2018-10-01T11:00:35.131Z,7236
2018-10-01T11:01:45.487Z,8080
2018-10-01T11:02:55.613Z,7960
2018-10-01T11:04:05.763Z,6852
2018-10-01T11:05:15.873Z,6280
2018-10-01T11:06:25.752Z,5804
2018-10-01T11:07:35.923Z,5828
2018-10-01T11:08:46.276Z,6196
2018-10-01T11:09:56.409Z,7028
2018-10-01T11:11:06.545Z,7924
2018-10-01T11:12:16.745Z,8464
2018-10-01T11:13:27.205Z,9380
2018-10-01T11:14:38.044Z,10700
2018-10-01T11:15:48.354Z,12140
2018-10-01T11:16:58.585Z,13464
2018-10-01T11:18:08.887Z,14816
2018-10-01T11:19:20.204Z,15424
2018-10-01T11:20:31.864Z,16000
2018-10-01T11:21:42.961Z,16384
2018-10-01T11:22:52.686Z,19264
2018-10-01T11:24:02.842Z,21792
2018-10-01T11:25:12.910Z,21920
2018-10-01T11:26:23.315Z,31424
2018-10-01T11:28:44.530Z,28896
2018-10-01T11:29:54.682Z,42592
2018-10-01T11:31:05.127Z,56064
2018-10-01T11:32:15.015Z,60256
2018-10-01T11:33:25.441Z,50432
2018-10-01T11:34:36.082Z,69280
2018-10-01T11:35:46.098Z,26336
2018-10-01T11:36:56.293Z,19744
2018-10-01T11:38:06.552Z,17792
2018-10-01T11:39:17.283Z,14272
2018-10-01T11:40:27.601Z,15136
2018-10-01T11:41:38.119Z,15872
2018-10-01T11:42:48.180Z,16992
2018-10-01T11:43:58.631Z,19776
2018-10-01T11:45:09.226Z,16896
2018-10-01T11:46:19.216Z,13436
2018-10-01T11:47:29.372Z,11188
2018-10-01T11:48:39.554Z,10372
2018-10-01T11:49:49.698Z,26720
2018-10-01T11:51:00.147Z,14272
2018-10-01T11:52:10.306Z,20608
2018-10-01T11:53:20.458Z,23552
2018-10-01T11:54:31.186Z,25856
2018-10-01T11:55:41.348Z,20928
2018-10-01T11:56:51.497Z,21344
2018-10-01T11:58:01.409Z,20416
2018-10-01T11:59:11.577Z,19072
2018-10-01T12:00:21.772Z,21696
2018-10-01T12:01:31.945Z,15936
2018-10-01T12:02:42.296Z,15328
2018-10-01T12:03:52.871Z,16128
2018-10-01T12:05:03.139Z,19968
2018-10-01T12:06:13.306Z,15360
2018-10-01T12:07:23.681Z,14656
2018-10-01T12:08:33.887Z,13440
2018-10-01T12:09:45.222Z,12824
2018-10-01T12:10:55.706Z,13180
2018-10-01T12:12:06.853Z,15104
2018-10-01T12:13:17.008Z,16480
2018-10-01T12:14:27.263Z,19360
2018-10-01T12:15:37.988Z,14048
2018-10-01T12:16:49.645Z,15552
2018-10-01T12:17:59.949Z,19616
2018-10-01T12:19:10.108Z,23584
2018-10-01T12:20:20.811Z,21344
2018-10-01T12:21:31.452Z,19776
2018-10-01T12:22:41.374Z,21376
2018-10-01T12:23:51.541Z,19584
2018-10-01T12:25:01.717Z,19232
2018-10-01T12:26:12.840Z,23296
2018-10-01T12:27:23.747Z,22240
2018-10-01T12:28:34.000Z,55584
2018-10-01T12:29:44.150Z,22176
2018-10-01T12:30:54.348Z,19360
2018-10-01T12:32:04.534Z,17728
2018-10-01T12:33:14.960Z,17536
2018-10-01T12:34:25.450Z,27968
2018-10-01T12:35:35.579Z,15744
2018-10-01T12:36:45.216Z,16480
2018-10-01T12:37:55.425Z,18400
2018-10-01T12:39:05.917Z,62496
2018-10-01T12:40:16.273Z,35520
2018-10-01T12:41:26.429Z,60608
2018-10-01T12:42:36.635Z,53440
2018-10-01T12:43:46.588Z,21440
2018-10-01T12:44:56.982Z,53856
2018-10-01T12:46:07.241Z,54496
2018-10-01T12:47:17.439Z,18144
2018-10-01T12:48:27.604Z,38016
2018-10-01T12:49:37.129Z,51424
2018-10-01T12:50:47.026Z,9708
2018-10-01T12:51:57.314Z,7704
2018-10-01T12:53:07.479Z,7740
2018-10-01T12:54:17.954Z,9420
2018-10-01T12:55:28.133Z,14272
2018-10-01T12:56:38.329Z,23232
2018-10-01T12:57:48.997Z,27840
2018-10-01T12:58:59.155Z,21824
2018-10-01T13:00:09.392Z,17504
2018-10-01T13:01:19.783Z,14016
2018-10-01T13:02:29.674Z,11684
2018-10-01T13:03:39.584Z,8784
2018-10-01T13:04:49.779Z,5960
2018-10-01T13:05:59.495Z,4336
2018-10-01T13:07:09.656Z,3672
2018-10-01T13:08:19.836Z,3524
2018-10-01T13:09:29.400Z,3820
2018-10-01T13:10:39.614Z,4364
2018-10-01T13:11:49.764Z,5280
2018-10-01T13:12:59.672Z,6540
2018-10-01T13:14:10.092Z,9184
2018-10-01T13:15:20.264Z,11220
2018-10-01T13:16:30.422Z,9880
2018-10-01T13:17:41.281Z,10204
2018-10-01T13:18:52.374Z,10476
2018-10-01T13:20:02.677Z,9496
2018-10-01T13:21:12.870Z,8020
2018-10-01T13:22:23.073Z,7648
2018-10-01T13:23:32.991Z,8440
2018-10-01T13:24:43.918Z,10740
2018-10-01T13:25:54.411Z,9932
2018-10-01T13:27:04.827Z,10120
2018-10-01T13:28:15.015Z,17152
2018-10-01T13:29:25.204Z,16672
2018-10-01T13:30:35.636Z,11396
2018-10-01T13:31:46.063Z,10196
2018-10-01T13:32:56.446Z,9768
2018-10-01T13:34:06.832Z,10892
2018-10-01T13:35:17.329Z,15936
2018-10-01T13:36:27.761Z,16672
2018-10-01T13:37:38.045Z,18848
2018-10-01T13:38:48.494Z,26784
2018-10-01T13:39:58.889Z,17856
2018-10-01T13:41:09.112Z,14176
2018-10-01T13:42:19.882Z,12696
2018-10-01T13:43:30.485Z,13760
2018-10-01T13:44:41.097Z,14336
2018-10-01T13:45:51.404Z,30880
2018-10-01T13:47:01.624Z,42112
2018-10-01T13:48:12.167Z,23776
2018-10-01T13:49:22.155Z,13284
2018-10-01T13:50:32.084Z,22784
2018-10-01T13:51:42.767Z,9588
2018-10-01T13:52:53.696Z,8760
2018-10-01T13:54:04.068Z,8228
2018-10-01T13:55:14.083Z,7676
2018-10-01T13:56:24.538Z,7404
2018-10-01T13:57:34.488Z,7540
2018-10-01T13:58:44.462Z,7840
2018-10-01T13:59:54.664Z,8060
2018-10-01T14:01:04.841Z,8348
2018-10-01T14:02:14.869Z,9636
2018-10-01T14:03:25.229Z,41024
2018-10-01T14:04:35.524Z,37440
2018-10-01T14:05:45.724Z,13952
2018-10-01T14:06:55.973Z,13696
2018-10-01T14:08:07.099Z,28288
2018-10-01T14:09:17.365Z,28064
2018-10-01T14:10:27.287Z,19648
2018-10-01T14:11:37.487Z,31392
2018-10-01T14:12:47.886Z,36768
2018-10-01T14:13:58.314Z,29600
2018-10-01T14:15:08.000Z,33600
2018-10-01T14:16:18.406Z,11228
2018-10-01T14:17:28.564Z,15808
2018-10-01T14:18:38.740Z,33824
2018-10-01T14:19:49.504Z,37344
2018-10-01T14:21:00.019Z,34880
2018-10-01T14:22:10.423Z,34880
2018-10-01T14:23:20.653Z,34336
2018-10-01T14:24:30.831Z,28896
2018-10-01T14:25:41.800Z,33184
2018-10-01T14:26:51.983Z,32704
2018-10-01T14:28:02.490Z,32928
2018-10-01T14:29:12.931Z,9232
2018-10-01T14:30:22.774Z,8392
2018-10-01T14:31:32.761Z,7832
2018-10-01T14:32:42.339Z,7308
2018-10-01T14:33:52.475Z,7468
2018-10-01T14:35:02.672Z,6160
2018-10-01T14:36:13.293Z,5996
2018-10-01T14:37:23.175Z,10636
2018-10-01T14:38:33.153Z,5400
2018-10-01T14:39:43.105Z,4932
2018-10-01T14:40:53.337Z,4980
2018-10-01T14:42:03.722Z,4832
2018-10-01T14:43:14.489Z,4472
2018-10-01T14:44:24.880Z,4624
2018-10-01T14:45:35.178Z,5552
2018-10-01T14:46:45.528Z,6008
2018-10-01T14:47:55.712Z,6224
2018-10-01T14:49:06.003Z,6196
2018-10-01T14:50:16.197Z,6248
2018-10-01T14:51:26.365Z,6524
2018-10-01T14:52:36.567Z,6360
2018-10-01T14:53:46.724Z,6836
2018-10-01T14:54:56.937Z,6524
2018-10-01T14:56:07.143Z,6032
2018-10-01T14:57:17.388Z,5736
2018-10-01T14:58:27.593Z,5728
2018-10-01T14:59:37.843Z,5620
2018-10-01T15:00:48.487Z,5320
2018-10-01T15:01:58.827Z,4876
2018-10-01T15:03:08.422Z,4440
2018-10-01T15:04:18.648Z,3944
2018-10-01T15:05:28.902Z,3304
2018-10-01T15:06:39.396Z,2804
2018-10-01T15:07:49.710Z,2436
2018-10-01T15:08:59.942Z,2144
2018-10-01T15:10:10.337Z,1896
2018-10-01T15:11:20.243Z,1760
2018-10-01T15:12:30.603Z,1696
2018-10-01T15:13:40.612Z,1700
2018-10-01T15:14:51.005Z,1740
2018-10-01T15:16:01.210Z,1772
2018-10-01T15:17:11.467Z,1784
2018-10-01T15:18:22.143Z,1756
2018-10-01T15:19:32.651Z,1696
2018-10-01T15:20:42.802Z,1692
2018-10-01T15:21:52.975Z,1756
2018-10-01T15:23:03.223Z,1972
2018-10-01T15:24:13.729Z,2312
2018-10-01T15:25:24.246Z,2516
2018-10-01T15:26:34.435Z,2572
2018-10-01T15:27:44.638Z,2560
2018-10-01T15:28:54.844Z,2568
2018-10-01T15:30:05.252Z,2500
2018-10-01T15:31:15.566Z,2436
2018-10-01T15:32:25.512Z,2408
2018-10-01T15:33:35.736Z,2400
2018-10-01T15:34:45.940Z,2440
2018-10-01T15:35:56.149Z,2524
2018-10-01T15:37:06.433Z,2592
2018-10-01T15:38:16.694Z,2596
2018-10-01T15:39:26.881Z,2524
2018-10-01T15:40:37.196Z,2308
2018-10-01T15:41:47.577Z,1888
2018-10-01T15:42:58.749Z,1588
2018-10-01T15:44:09.018Z,1332
2018-10-01T15:45:19.242Z,1076
2018-10-01T15:46:29.459Z,968
2018-10-01T15:47:39.668Z,860
2018-10-01T15:48:49.838Z,692
2018-10-01T15:50:00.326Z,552
2018-10-01T15:51:10.756Z,604
2018-10-01T15:52:20.910Z,620
2018-10-01T15:53:30.694Z,572
2018-10-01T15:54:40.860Z,540
2018-10-01T15:55:50.909Z,540
2018-10-01T15:57:01.234Z,548
2018-10-01T15:58:11.483Z,612
2018-10-01T15:59:21.675Z,760
2018-10-01T16:00:32.540Z,1060
2018-10-01T16:01:42.487Z,1472
2018-10-01T16:02:52.719Z,1664